Time;durP1;ratioP1;P1;durP2;ratioP2;P2;SDS_P1;SDS_P2;PMS_P1;PMS_P2;Temp;Humidity;BMP_temperature;BMP_pressure;BME280_temperature;BME280_humidity;BME280_pressure;Samples;Min_cycle;Max_cycle;Signal;HPM_P1;HPM_P2
2021/01/20 00:02:01;;;;;;;329.75;114.05;;;;;;;-14.33;69.57;100339.14;1742227;79;20985;-44
2021/01/20 00:04:29;;;;;;;365.95;127.12;;;;;;;-14.35;69.69;100346.84;1743692;79;21079;-43
2021/01/20 00:09:10;;;;;;;372.63;125.05;;;;;;;-14.31;70.14;100343.62;1788999;77;22785;-43
2021/01/20 00:11:39;;;;;;;339.30;124.27;;;;;;;-14.36;70.17;100347.64;1735758;80;21009;-45
2021/01/20 00:14:07;;;;;;;301.82;106.05;;;;;;;-14.41;69.95;100350.38;1729738;81;21411;-43
2021/01/20 00:16:36;;;;;;;358.77;126.50;;;;;;;-14.46;69.81;100357.38;1731529;80;21142;-44
2021/01/20 00:19:04;;;;;;;323.73;117.70;;;;;;;-14.49;69.89;100357.22;1729569;80;21181;-44
2021/01/20 00:21:32;;;;;;;349.70;120.22;;;;;;;-14.53;70.04;100353.58;1730466;80;21021;-43
2021/01/20 00:24:00;;;;;;;344.73;122.75;;;;;;;-14.59;70.15;100353.23;1701140;82;21017;-43
2021/01/20 00:26:28;;;;;;;354.50;121.35;;;;;;;-14.64;70.41;100352.06;1698649;81;21361;-44
2021/01/20 00:28:56;;;;;;;350.13;123.75;;;;;;;-14.68;70.63;100351.38;1697808;81;21072;-44
2021/01/20 00:31:24;;;;;;;319.95;116.75;;;;;;;-14.69;70.72;100354.38;1699583;81;21662;-44
2021/01/20 00:33:52;;;;;;;319.62;111.50;;;;;;;-14.71;70.74;100348.19;1698804;81;21008;-44
2021/01/20 00:36:22;;;;;;;329.95;119.47;;;;;;;-14.74;70.82;100341.97;1699971;81;21035;-44
2021/01/20 00:38:50;;;;;;;317.30;112.75;;;;;;;-14.76;70.85;100343.55;1672233;83;21390;-43
2021/01/20 00:41:18;;;;;;;342.98;120.40;;;;;;;-14.80;70.94;100342.50;1698652;81;21157;-44
2021/01/20 00:43:46;;;;;;;314.40;112.05;;;;;;;-14.79;71.00;100338.21;1699891;81;21154;-52
2021/01/20 00:46:14;;;;;;;303.20;108.07;;;;;;;-14.77;71.18;100341.77;1698142;81;20987;-51
2021/01/20 00:48:45;;;;;;;308.80;110.52;;;;;;;-14.79;70.81;100339.09;1700003;81;21943;-52
2021/01/20 00:51:13;;;;;;;305.47;111.90;;;;;;;-14.83;70.79;100336.72;1699073;81;21288;-50
2021/01/20 00:53:41;;;;;;;320.15;113.83;;;;;;;-14.87;70.78;100333.85;1698214;81;21525;-45
2021/01/20 00:56:10;;;;;;;353.32;117.05;;;;;;;-14.89;70.77;100332.48;1701625;81;21134;-46
2021/01/20 00:58:39;;;;;;;328.48;111.62;;;;;;;-14.95;70.49;100341.58;1671822;83;21063;-45
2021/01/20 01:01:07;;;;;;;280.23;102.97;;;;;;;-15.00;70.31;100345.18;1698331;81;21153;-46
2021/01/20 01:03:36;;;;;;;296.43;106.65;;;;;;;-15.01;70.45;100338.22;1669813;83;21382;-45
2021/01/20 01:06:06;;;;;;;308.15;109.12;;;;;;;-14.98;70.70;100335.80;1698678;81;21608;-45
2021/01/20 01:08:34;;;;;;;275.95;100.30;;;;;;;-14.93;70.66;100327.91;1688227;81;21160;-46
2021/01/20 01:11:04;;;;;;;302.82;106.07;;;;;;;-14.93;70.58;100329.21;1696131;80;21158;-45
2021/01/20 01:13:38;;;;;;;287.77;102.35;;;;;;;-14.90;70.67;100337.17;1716080;81;21147;-45
2021/01/20 01:16:18;;;;;;;288.40;102.58;;;;;;;-14.87;70.51;100334.75;1833490;74;22666;-48
2021/01/20 01:18:46;;;;;;;258.10;99.75;;;;;;;-14.91;70.51;100334.09;1823856;77;21398;-45
2021/01/20 01:21:14;;;;;;;251.07;98.25;;;;;;;-14.95;70.47;100339.88;1824022;77;21306;-45
2021/01/20 01:23:42;;;;;;;254.82;99.00;;;;;;;-14.99;70.51;100348.25;1824562;77;21021;-45
2021/01/20 01:26:10;;;;;;;271.27;101.72;;;;;;;-15.02;70.49;100340.29;1823748;77;21487;-44
2021/01/20 01:28:39;;;;;;;269.65;99.25;;;;;;;-15.03;70.66;100339.80;1824658;77;20950;-44
2021/01/20 01:31:18;;;;;;;262.98;98.45;;;;;;;-15.03;70.57;100341.09;1822614;77;21100;-45
2021/01/20 01:33:46;;;;;;;256.95;98.75;;;;;;;-15.07;70.61;100339.16;1823685;77;22133;-45
2021/01/20 01:36:14;;;;;;;262.20;97.05;;;;;;;-15.11;70.69;100337.17;1823905;77;21441;-45
2021/01/20 01:38:42;;;;;;;272.35;110.12;;;;;;;-15.10;70.88;100336.36;1823989;77;21587;-45
2021/01/20 01:41:12;;;;;;;272.98;101.85;;;;;;;-15.11;70.66;100329.41;1823840;77;20978;-45
2021/01/20 01:43:45;;;;;;;234.43;90.15;;;;;;;-15.11;70.53;100341.05;1785632;79;21211;-46
2021/01/20 01:46:27;;;;;;;279.65;97.35;;;;;;;-15.10;70.68;100347.60;1761097;80;21323;-46
2021/01/20 01:49:14;;;;;;;267.45;98.22;;;;;;;-15.12;70.64;100346.63;1758877;80;21583;-45
2021/01/20 01:51:43;;;;;;;265.23;99.05;;;;;;;-15.14;70.50;100344.73;1760560;80;21621;-45
2021/01/20 01:54:23;;;;;;;253.18;91.17;;;;;;;-15.16;70.20;100341.17;1817572;75;22697;-45
2021/01/20 01:56:51;;;;;;;222.42;90.65;;;;;;;-15.28;70.10;100348.16;1796769;77;20977;-45
2021/01/20 01:59:21;;;;;;;249.77;94.10;;;;;;;-15.36;70.24;100346.00;1796079;77;21554;-45
2021/01/20 02:01:49;;;;;;;254.50;93.45;;;;;;;-15.27;70.64;100353.84;1791096;77;21077;-45
2021/01/20 02:04:20;;;;;;;226.90;91.65;;;;;;;-15.22;70.60;100361.49;1791798;77;21041;-45
2021/01/20 02:06:55;;;;;;;258.70;102.27;;;;;;;-15.25;70.27;100350.95;1790586;78;21570;-45
2021/01/20 02:09:25;;;;;;;269.40;106.03;;;;;;;-15.28;70.06;100355.91;1800206;77;21487;-46
2021/01/20 02:12:42;;;;;;;307.40;113.22;;;;;;;-15.33;69.98;100355.66;1779094;79;22246;-44
2021/01/20 02:15:23;;;;;;;292.55;107.03;;;;;;;-15.32;69.90;100348.80;1790007;77;20982;-45
2021/01/20 02:18:02;;;;;;;272.73;96.95;;;;;;;-15.39;69.32;100351.01;1791048;77;20966;-45
2021/01/20 02:20:49;;;;;;;308.10;103.60;;;;;;;-15.53;69.27;100344.08;1789426;77;21092;-45
2021/01/20 02:23:18;;;;;;;306.57;107.78;;;;;;;-15.65;69.17;100347.23;1792263;77;21600;-45
2021/01/20 02:26:17;;;;;;;296.68;102.40;;;;;;;-15.87;69.03;100348.83;1790025;77;21340;-44
2021/01/20 02:29:38;;;;;;;310.60;107.07;;;;;;;-16.04;69.13;100340.01;1809426;76;22675;-46
2021/01/20 02:32:08;;;;;;;292.68;100.60;;;;;;;-16.21;69.14;100345.39;1754292;79;21084;-45
2021/01/20 02:34:36;;;;;;;229.35;84.87;;;;;;;-16.32;69.39;100344.20;1740675;79;21600;-45
2021/01/20 02:37:04;;;;;;;270.20;101.40;;;;;;;-16.37;69.61;100345.59;1754002;79;21093;-46
2021/01/20 02:40:05;;;;;;;268.15;96.95;;;;;;;-16.42;69.78;100342.70;1854700;74;22798;-45
2021/01/20 02:42:48;;;;;;;265.02;98.95;;;;;;;-16.52;70.04;100350.62;1785779;79;21495;-53
2021/01/20 02:45:19;;;;;;;246.37;83.95;;;;;;;-16.58;70.15;100353.70;1775898;80;21149;-50
2021/01/20 02:47:49;;;;;;;208.80;80.22;;;;;;;-16.54;70.48;100354.80;1787309;78;21400;-51
2021/01/20 02:50:19;;;;;;;251.80;85.20;;;;;;;-16.61;70.39;100360.36;1778510;80;21589;-50
2021/01/20 02:52:56;;;;;;;231.07;82.53;;;;;;;-16.67;70.46;100364.32;1806702;79;21022;-49
2021/01/20 02:55:52;;;;;;;199.07;74.22;;;;;;;-16.71;70.50;100364.04;1806232;79;20994;-50
2021/01/20 02:58:47;;;;;;;188.42;68.12;;;;;;;-16.76;70.63;100360.26;1818947;75;23352;-50
2021/01/20 03:01:20;;;;;;;199.12;79.92;;;;;;;-16.87;70.77;100353.48;1785203;77;20985;-49
2021/01/20 03:03:48;;;;;;;157.62;62.78;;;;;;;-16.94;70.92;100360.78;1736134;79;22086;-50
2021/01/20 03:06:16;;;;;;;169.00;66.62;;;;;;;-16.96;71.16;100370.11;1779014;79;20966;-50
2021/01/20 03:08:44;;;;;;;195.38;75.35;;;;;;;-16.98;71.52;100370.41;1780227;79;21598;-50
2021/01/20 03:11:12;;;;;;;209.15;81.28;;;;;;;-17.00;71.47;100368.50;1781451;79;20959;-49
2021/01/20 03:13:40;;;;;;;219.37;83.67;;;;;;;-17.02;71.43;100369.70;1781457;79;20950;-50
2021/01/20 03:16:08;;;;;;;214.02;80.03;;;;;;;-16.98;71.50;100374.28;1782902;78;21289;-49
2021/01/20 03:18:36;;;;;;;220.10;85.70;;;;;;;-16.96;71.54;100377.84;1781008;78;21515;-50
2021/01/20 03:21:05;;;;;;;215.32;81.95;;;;;;;-16.94;71.54;100377.55;1780713;79;20989;-50
2021/01/20 03:23:34;;;;;;;205.35;80.62;;;;;;;-16.87;71.73;100379.28;1782699;79;21045;-50
2021/01/20 03:26:02;;;;;;;198.00;81.28;;;;;;;-16.81;71.73;100378.40;1781574;79;20978;-49
2021/01/20 03:28:30;;;;;;;199.90;80.72;;;;;;;-16.78;71.67;100374.72;1781751;78;22300;-49
2021/01/20 03:30:57;;;;;;;209.15;77.92;;;;;;;-16.72;71.85;100380.28;1780691;79;21525;-49
2021/01/20 03:33:25;;;;;;;205.65;79.47;;;;;;;-16.65;71.89;100390.22;1781835;79;21140;-49
2021/01/20 03:35:54;;;;;;;208.43;79.85;;;;;;;-16.60;71.91;100383.67;1781027;79;20994;-50
2021/01/20 03:38:21;;;;;;;217.43;83.35;;;;;;;-16.55;71.88;100383.98;1782286;79;21687;-49
2021/01/20 03:40:49;;;;;;;222.15;82.37;;;;;;;-16.51;71.85;100383.01;1782329;79;21711;-50
2021/01/20 03:43:17;;;;;;;199.10;78.05;;;;;;;-16.44;71.99;100381.32;1781192;79;21162;-49
2021/01/20 03:45:45;;;;;;;202.75;83.60;;;;;;;-16.36;72.03;100375.77;1782040;79;21648;-50
2021/01/20 03:48:13;;;;;;;218.95;83.78;;;;;;;-16.33;72.10;100376.86;1781276;79;21185;-49
2021/01/20 03:50:40;;;;;;;244.90;86.08;;;;;;;-16.27;72.21;100381.54;1782084;79;21050;-50
2021/01/20 03:53:08;;;;;;;223.90;87.70;;;;;;;-16.24;72.04;100376.55;1781624;79;21401;-50
2021/01/20 03:55:36;;;;;;;242.70;87.05;;;;;;;-16.25;71.90;100382.52;1782244;79;21609;-50
2021/01/20 03:58:04;;;;;;;251.77;94.03;;;;;;;-16.29;71.58;100387.01;1780565;79;20974;-49
2021/01/20 04:00:31;;;;;;;256.27;93.70;;;;;;;-16.37;71.31;100384.30;1780614;79;21128;-50
2021/01/20 04:02:59;;;;;;;272.45;96.65;;;;;;;-16.42;71.09;100378.83;1780831;78;21132;-50
2021/01/20 04:05:38;;;;;;;262.17;95.77;;;;;;;-16.39;71.20;100368.73;1802807;76;23306;-49
2021/01/20 04:08:06;;;;;;;251.12;93.60;;;;;;;-16.44;71.31;100371.00;1781237;79;20962;-51
2021/01/20 04:10:34;;;;;;;287.65;99.80;;;;;;;-16.41;71.35;100355.69;1747761;80;21380;-50
2021/01/20 04:13:02;;;;;;;275.90;94.75;;;;;;;-16.44;71.20;100360.67;1747135;80;21016;-50
2021/01/20 04:15:30;;;;;;;282.45;96.57;;;;;;;-16.47;71.25;100363.03;1729786;81;21620;-51
2021/01/20 04:17:58;;;;;;;288.78;98.40;;;;;;;-16.52;71.06;100367.00;1782424;79;20998;-53
2021/01/20 04:20:26;;;;;;;295.05;100.30;;;;;;;-16.61;70.93;100354.80;1783568;79;20954;-52
2021/01/20 04:22:54;;;;;;;329.40;103.25;;;;;;;-16.70;70.87;100358.94;1782191;79;21355;-51
2021/01/20 04:25:22;;;;;;;313.80;108.10;;;;;;;-16.77;70.92;100355.90;1780397;79;21025;-51
2021/01/20 04:27:50;;;;;;;256.70;91.85;;;;;;;-16.82;70.97;100345.66;1782258;79;20993;-51
2021/01/20 04:30:19;;;;;;;254.45;88.03;;;;;;;-16.89;71.08;100347.31;1782649;79;21088;-50
2021/01/20 04:32:47;;;;;;;291.25;100.20;;;;;;;-16.96;71.32;100346.91;1780894;79;21098;-50
2021/01/20 04:35:15;;;;;;;232.92;86.65;;;;;;;-16.99;71.57;100342.84;1782298;79;21332;-52
2021/01/20 04:37:44;;;;;;;254.65;93.37;;;;;;;-16.97;71.83;100342.55;1780940;79;21002;-51
2021/01/20 04:40:12;;;;;;;217.37;73.07;;;;;;;-16.94;72.09;100338.86;1781889;79;20953;-52
2021/01/20 04:42:40;;;;;;;220.15;82.25;;;;;;;-16.87;72.39;100348.33;1781943;79;21642;-52
2021/01/20 04:45:09;;;;;;;209.05;82.05;;;;;;;-16.89;72.37;100344.33;1781348;79;21103;-51
2021/01/20 04:47:36;;;;;;;207.80;77.10;;;;;;;-16.84;72.63;100343.36;1781833;79;21325;-52
2021/01/20 04:50:06;;;;;;;182.55;71.87;;;;;;;-16.86;72.60;100343.27;1781394;79;21635;-52
2021/01/20 04:52:34;;;;;;;140.92;57.10;;;;;;;-16.86;72.76;100344.95;1780885;79;21136;-49
2021/01/20 04:55:02;;;;;;;198.15;71.53;;;;;;;-16.88;73.00;100351.67;1754089;79;21163;-49
2021/01/20 04:57:35;;;;;;;179.82;70.50;;;;;;;-16.86;73.15;100357.84;1779974;79;21001;-49
2021/01/20 05:00:05;;;;;;;195.65;74.45;;;;;;;-16.82;73.39;100362.43;1780420;79;21358;-46
2021/01/20 05:02:34;;;;;;;182.00;69.58;;;;;;;-16.77;73.51;100361.05;1780799;79;27225;-47
2021/01/20 05:05:04;;;;;;;171.72;66.90;;;;;;;-16.71;73.73;100370.09;1779081;79;21009;-47
2021/01/20 05:07:32;;;;;;;175.30;69.50;;;;;;;-16.65;73.79;100369.57;1780922;79;21112;-47
2021/01/20 05:10:00;;;;;;;175.60;69.25;;;;;;;-16.58;74.01;100371.76;1777353;79;21119;-44
2021/01/20 05:12:39;;;;;;;154.07;62.30;;;;;;;-16.51;74.15;100368.81;1779649;79;21136;-46
2021/01/20 05:15:11;;;;;;;119.47;48.45;;;;;;;-16.49;74.10;100374.95;1781273;79;21552;-46
2021/01/20 05:17:57;;;;;;;170.72;64.55;;;;;;;-16.50;74.25;100375.76;1778678;79;21164;-45
2021/01/20 05:20:28;;;;;;;188.40;73.05;;;;;;;-16.50;74.43;100373.17;1780552;79;20989;-46
2021/01/20 05:22:58;;;;;;;191.68;76.90;;;;;;;-16.49;74.34;100374.95;1781534;79;26624;-47
2021/01/20 05:25:30;;;;;;;179.07;72.12;;;;;;;-16.49;74.38;100372.78;1779848;79;21383;-45
2021/01/20 05:28:27;;;;;;;180.67;72.87;;;;;;;-16.43;74.56;100375.36;1865225;74;22128;-48
2021/01/20 05:30:58;;;;;;;185.73;70.78;;;;;;;-16.45;74.73;100378.25;1825413;75;20942;-47
2021/01/20 05:33:29;;;;;;;193.40;78.92;;;;;;;-16.33;74.94;100386.30;1760619;78;21438;-46
2021/01/20 05:36:08;;;;;;;219.62;87.40;;;;;;;-16.31;74.82;100385.99;1728450;80;21565;-46
2021/01/20 05:38:48;;;;;;;209.27;77.72;;;;;;;-16.30;74.74;100390.36;1787076;78;21014;-46
2021/01/20 05:41:29;;;;;;;195.80;77.05;;;;;;;-16.24;74.80;100379.13;1850878;75;23503;-45
2021/01/20 05:44:13;;;;;;;207.03;76.55;;;;;;;-16.30;74.76;100394.23;1763285;78;21034;-44
2021/01/20 05:46:43;;;;;;;183.82;67.82;;;;;;;-16.32;74.85;100388.08;1758229;80;22244;-46
2021/01/20 05:49:28;;;;;;;185.00;74.12;;;;;;;-16.27;75.11;100397.03;1756696;79;21687;-45
2021/01/20 05:51:56;;;;;;;173.05;67.67;;;;;;;-16.25;75.21;100391.55;1755881;80;20944;-45
2021/01/20 05:54:37;;;;;;;176.12;66.62;;;;;;;-16.19;75.37;100394.53;1755481;80;20951;-46
2021/01/20 05:57:19;;;;;;;169.13;66.70;;;;;;;-16.15;75.45;100392.66;1756528;79;21040;-46
2021/01/20 06:07:55;;;;;;;181.43;64.95;;;;;;;-15.62;76.08;100400.35;1790449;77;22554;-45
2021/01/20 06:10:23;;;;;;;140.50;54.80;;;;;;;-15.65;75.61;100408.86;1751771;80;21002;-45
2021/01/20 06:12:52;;;;;;;169.20;67.32;;;;;;;-15.71;75.44;100402.38;1728391;81;22089;-51
2021/01/20 06:15:21;;;;;;;;;;;;;;;-15.75;75.53;100405.59;1704206;82;20989;-53
2021/01/20 06:17:49;;;;;;;162.60;61.10;;;;;;;-15.76;75.58;100411.52;1730492;82;20267;-52
2021/01/20 06:20:23;;;;;;;166.35;62.88;;;;;;;-15.80;75.59;100405.69;1750206;81;21025;-52
2021/01/20 06:22:48;;;;;;;159.65;58.98;;;;;;;-15.81;75.67;100410.36;1729201;81;21069;-52
2021/01/20 06:25:30;;;;;;;167.53;61.20;;;;;;;-15.82;75.77;100403.37;1749560;81;21455;-53
2021/01/20 06:28:07;;;;;;;201.40;77.30;;;;;;;-15.81;75.80;100409.07;1726647;81;21021;-52
2021/01/20 06:30:44;;;;;;;199.93;76.00;;;;;;;-15.81;75.75;100410.36;1746817;80;21033;-51
2021/01/20 06:33:20;;;;;;;239.70;88.25;;;;;;;-15.72;75.90;100404.06;1814894;76;22385;-53
2021/01/20 06:35:50;;;;;;;258.07;86.67;;;;;;;-15.77;75.89;100404.57;1775767;77;21409;-54
2021/01/20 06:38:32;;;;;;;207.77;74.50;;;;;;;-15.73;76.06;100407.86;1762409;78;21434;-53
2021/01/20 06:41:07;;;;;;;282.87;99.03;;;;;;;-15.65;76.10;100409.25;1765748;78;21806;-51
2021/01/20 06:43:42;;;;;;;248.72;93.78;;;;;;;-15.70;75.78;100414.53;1759903;78;21814;-51
2021/01/20 06:46:20;;;;;;;266.48;94.77;;;;;;;-15.68;75.95;100415.51;1759668;78;21445;-52
2021/01/20 06:48:59;;;;;;;225.95;80.65;;;;;;;-15.67;75.80;100422.45;1763363;79;20966;-52
2021/01/20 06:51:29;;;;;;;232.72;84.20;;;;;;;-15.63;75.87;100418.88;1756848;79;21945;-53
2021/01/20 06:56:49;;;;;;;222.87;100.57;;;;;;;-15.62;75.83;100409.39;1762469;78;28150;-52
2021/01/20 06:59:29;;;;;;;189.72;75.05;;;;;;;-15.62;75.83;100409.39;1775799;79;21387;-54
2021/01/20 07:04:51;;;;;;;219.22;80.15;;;;;;;-15.40;76.07;100416.41;1816940;76;22780;-52
2021/01/20 07:07:50;;;;;;;178.38;69.80;;;;;;;-15.41;76.21;100412.05;1781632;78;21572;-51
2021/01/20 07:10:24;;;;;;;195.43;76.97;;;;;;;-15.38;76.10;100421.30;1771355;78;21468;-50
2021/01/20 07:13:14;;;;;;;175.20;70.05;;;;;;;-15.36;76.21;100426.16;1780795;78;21660;-51
2021/01/20 07:15:48;;;;;;;132.25;53.70;;;;;;;-15.29;76.31;100426.53;1781607;78;21056;-51
2021/01/20 07:18:16;;;;;;;120.90;48.28;;;;;;;-15.23;76.44;100433.37;1781870;78;20975;-54
2021/01/20 07:20:45;;;;;;;112.55;42.95;;;;;;;-15.18;76.50;100439.73;1783221;78;21026;-51
2021/01/20 07:23:13;;;;;;;112.32;43.87;;;;;;;-15.13;76.58;100437.04;1781331;79;21346;-50
2021/01/20 07:25:43;;;;;;;109.05;43.90;;;;;;;-15.10;76.72;100435.55;1782345;78;21060;-51
2021/01/20 07:28:11;;;;;;;109.67;46.77;;;;;;;-15.04;76.80;100438.91;1724389;78;20980;-53
2021/01/20 07:30:39;;;;;;;123.02;49.08;;;;;;;-14.99;76.81;100448.25;1780827;78;21170;-52
2021/01/20 07:33:19;;;;;;;88.85;34.53;;;;;;;-14.92;76.84;100443.53;1781644;78;21560;-51
2021/01/20 07:35:48;;;;;;;112.72;43.83;;;;;;;-14.85;76.84;100445.73;1781282;78;21376;-52
2021/01/20 07:38:16;;;;;;;116.25;47.78;;;;;;;-14.79;76.72;100444.31;1779126;78;20990;-60
2021/01/20 07:40:45;;;;;;;101.45;42.75;;;;;;;-14.77;76.66;100438.41;1782574;78;21057;-55
2021/01/20 07:43:24;;;;;;;110.10;43.98;;;;;;;-14.72;76.69;100438.70;1783355;78;21134;-54
2021/01/20 07:46:00;;;;;;;114.77;56.92;;;;;;;-14.63;76.71;100449.63;1774302;77;28693;-54
2021/01/20 07:48:29;;;;;;;109.32;52.05;;;;;;;-14.57;76.70;100444.81;1779136;79;21519;-56
2021/01/20 07:50:58;;;;;;;111.30;46.13;;;;;;;-14.49;76.55;100451.73;1779809;79;21369;-57
2021/01/20 07:53:27;;;;;;;109.50;45.85;;;;;;;-14.42;76.36;100442.22;1780718;79;21665;-59
2021/01/20 07:55:55;;;;;;;127.80;50.83;;;;;;;-14.40;76.19;100451.84;1778771;80;21929;-58
2021/01/20 07:58:27;;;;;;;121.35;52.17;;;;;;;-14.39;76.15;100451.04;1778960;79;20955;-57
2021/01/20 08:00:56;;;;;;;112.60;49.20;;;;;;;-14.25;76.45;100456.16;1779019;78;21578;-59
2021/01/20 08:03:34;;;;;;;114.20;45.28;;;;;;;-14.18;75.89;100458.30;1778438;79;21372;-60
2021/01/20 08:06:07;;;;;;;100.67;40.20;;;;;;;-14.18;75.56;100466.08;1776230;79;21038;-60
2021/01/20 08:08:33;;;;;;;108.47;41.45;;;;;;;-14.20;75.53;100465.10;1777807;79;21373;-59
2021/01/20 08:11:03;;;;;;;106.67;46.55;;;;;;;-14.18;75.65;100460.89;1774410;79;20996;-60
2021/01/20 08:13:31;;;;;;;121.77;50.67;;;;;;;-14.16;75.54;100472.26;1778031;79;21638;-59
2021/01/20 08:16:00;;;;;;;104.17;38.20;;;;;;;-14.13;75.47;100472.42;1778901;79;21832;-57
2021/01/20 08:18:28;;;;;;;121.82;50.28;;;;;;;-14.12;75.18;100470.31;1780473;80;20992;-56
2021/01/20 08:20:57;;;;;;;111.70;48.02;;;;;;;-14.11;75.22;100478.57;1779229;79;21178;-52
2021/01/20 08:23:51;;;;;;;141.53;57.15;;;;;;;-14.09;75.24;100469.22;1778514;78;21170;-52
2021/01/20 08:26:27;;;;;;;128.70;50.30;;;;;;;-14.05;75.18;100471.19;1779805;79;20967;-51
2021/01/20 08:29:11;;;;;;;135.48;54.42;;;;;;;-13.97;75.12;100469.92;1779224;79;21605;-49
2021/01/20 08:31:42;;;;;;;107.70;46.80;;;;;;;-13.94;75.12;100476.59;1778664;79;21165;-46
2021/01/20 08:34:17;;;;;;;131.37;53.13;;;;;;;-13.88;75.10;100473.06;1780238;79;21050;-53
2021/01/20 08:36:56;;;;;;;135.40;54.40;;;;;;;-13.83;74.94;100474.22;1779618;79;21019;-53
2021/01/20 08:39:24;;;;;;;110.37;45.00;;;;;;;-13.78;74.88;100467.61;1778285;78;21709;-48
2021/01/20 08:42:21;;;;;;;104.92;44.63;;;;;;;-13.73;74.60;100461.80;1778011;79;21577;-52
2021/01/20 08:45:10;;;;;;;102.00;43.00;;;;;;;-13.76;74.35;100458.20;1775626;79;21550;-49
2021/01/20 08:48:02;;;;;;;99.25;41.05;;;;;;;-13.69;74.60;100459.84;1768238;80;21511;-50
2021/01/20 08:50:34;;;;;;;92.15;36.83;;;;;;;-13.63;74.45;100455.00;1768697;79;20979;-50
2021/01/20 08:53:11;;;;;;;108.75;44.00;;;;;;;-13.57;74.36;100461.86;1767339;80;21143;-53
2021/01/20 08:55:41;;;;;;;121.65;50.70;;;;;;;-13.53;74.50;100456.02;1767590;80;22678;-51
2021/01/20 08:58:33;;;;;;;74.20;34.60;;;;;;;-13.47;74.23;100461.58;1768390;79;21481;-47
2021/01/20 09:01:18;;;;;;;108.57;46.73;;;;;;;-13.45;74.18;100453.47;1767842;80;21071;-51
2021/01/20 09:04:06;;;;;;;127.53;51.25;;;;;;;-13.35;74.15;100454.47;1823997;76;23304;-52
2021/01/20 09:06:36;;;;;;;109.52;47.93;;;;;;;-13.38;74.15;100456.89;1762249;78;20938;-52
2021/01/20 09:09:04;;;;;;;119.15;47.13;;;;;;;-13.30;74.26;100453.03;1766008;78;21329;-54
2021/01/20 09:11:32;;;;;;;99.72;41.68;;;;;;;-13.25;74.25;100451.59;1763835;78;21183;-52
2021/01/20 09:14:00;;;;;;;110.48;46.28;;;;;;;-13.13;74.42;100455.62;1762870;79;21028;-53
2021/01/20 09:16:30;;;;;;;104.35;42.73;;;;;;;-13.03;74.38;100446.24;1738508;79;21541;-53
2021/01/20 09:18:58;;;;;;;109.07;44.73;;;;;;;-12.94;74.19;100450.64;1770431;78;20958;-64
2021/01/20 09:21:28;;;;;;;110.70;43.68;;;;;;;-12.90;74.09;100453.87;1724129;79;24332;-63
2021/01/20 09:23:57;;;;;;;101.97;46.53;;;;;;;-12.86;74.11;100451.93;1764495;78;20985;-55
2021/01/20 09:26:25;;;;;;;113.75;46.98;;;;;;;-12.83;74.09;100452.11;1765585;79;21191;-55
2021/01/20 09:28:54;;;;;;;95.50;40.73;;;;;;;-12.80;74.10;100449.66;1761720;79;21231;-52
2021/01/20 09:31:22;;;;;;;107.75;42.75;;;;;;;-12.71;74.17;100449.27;1766649;79;21559;-52
2021/01/20 09:33:52;;;;;;;94.30;40.90;;;;;;;-12.65;74.25;100448.70;1764463;79;21189;-57
2021/01/20 09:36:20;;;;;;;101.70;44.63;;;;;;;-12.58;74.21;100458.59;1764223;79;21001;-51
2021/01/20 09:38:48;;;;;;;96.22;44.48;;;;;;;-12.52;74.22;100442.02;1763823;79;20950;-52
2021/01/20 09:41:16;;;;;;;104.67;45.08;;;;;;;-12.47;74.16;100434.06;1761917;79;21144;-55
2021/01/20 09:43:44;;;;;;;96.05;41.65;;;;;;;-12.36;74.19;100444.61;1767189;79;20961;-56
2021/01/20 09:46:12;;;;;;;83.10;34.27;;;;;;;-12.28;73.90;100444.61;1763122;79;22105;-53
2021/01/20 09:48:40;;;;;;;80.75;33.58;;;;;;;-12.21;73.88;100444.10;1765646;78;21147;-54
2021/01/20 09:51:08;;;;;;;92.72;37.30;;;;;;;-12.15;73.70;100447.01;1765327;79;20985;-54
2021/01/20 09:53:36;;;;;;;80.03;33.10;;;;;;;-12.10;73.61;100434.66;1763300;79;20938;-52
2021/01/20 09:56:06;;;;;;;85.07;36.98;;;;;;;-12.05;73.49;100430.59;1769107;79;21168;-51
2021/01/20 09:58:39;;;;;;;95.55;36.98;;;;;;;-12.04;73.43;100426.76;1765660;79;21358;-52
2021/01/20 10:01:04;;;;;;;87.70;35.83;;;;;;;-12.04;73.41;100423.27;1762752;79;21171;-52
2021/01/20 10:03:32;;;;;;;75.40;32.63;;;;;;;-11.99;73.51;100433.49;1766458;78;21028;-50
2021/01/20 10:06:00;;;;;;;90.00;38.73;;;;;;;-11.97;73.54;100433.19;1761839;80;21112;-51
2021/01/20 10:08:29;;;;;;;71.20;32.70;;;;;;;-11.90;73.62;100426.16;1763379;79;21616;-52
2021/01/20 10:10:57;;;;;;;110.03;43.45;;;;;;;-11.77;73.72;100427.61;1766368;79;22217;-51
2021/01/20 10:13:25;;;;;;;80.12;32.60;;;;;;;-11.69;73.56;100423.28;1762500;79;21001;-55
2021/01/20 10:15:55;;;;;;;88.37;36.30;;;;;;;-11.59;73.42;100419.42;1762860;79;20958;-56
2021/01/20 10:18:23;;;;;;;85.28;35.73;;;;;;;-11.53;73.35;100421.44;1761292;78;21576;-55
2021/01/20 10:20:51;;;;;;;82.97;34.73;;;;;;;-11.51;73.33;100427.59;1762326;79;20958;-56
2021/01/20 10:23:19;;;;;;;85.30;36.58;;;;;;;-11.48;73.27;100426.03;1766881;79;21622;-55
2021/01/20 10:25:47;;;;;;;83.58;35.88;;;;;;;-11.41;73.17;100429.81;1765642;79;20985;-57
2021/01/20 10:28:15;;;;;;;93.78;37.95;;;;;;;-11.37;73.04;100418.74;1761184;78;21021;-56
2021/01/20 10:30:43;;;;;;;96.87;41.40;;;;;;;-11.30;73.05;100418.20;1767110;78;21156;-57
2021/01/20 10:33:11;;;;;;;91.20;37.58;;;;;;;-11.23;73.22;100415.09;1768671;79;21155;-51
2021/01/20 10:35:40;;;;;;;96.60;40.45;;;;;;;-11.13;72.84;100419.91;1764444;78;21207;-51
2021/01/20 10:38:08;;;;;;;80.53;35.20;;;;;;;-11.05;72.93;100411.55;1767042;78;20998;-54
2021/01/20 10:40:36;;;;;;;76.65;33.13;;;;;;;-10.96;72.70;100405.06;1765555;79;21123;-62
2021/01/20 10:43:05;;;;;;;71.47;30.88;;;;;;;-10.88;72.46;100406.70;1762007;79;21096;-61
2021/01/20 10:45:34;;;;;;;66.37;31.48;;;;;;;-10.85;72.34;100406.86;1767266;79;21103;-53
2021/01/20 10:48:06;;;;;;;87.45;36.15;;;;;;;-10.78;72.17;100405.00;1764597;79;22103;-53
2021/01/20 10:50:34;;;;;;;76.85;32.80;;;;;;;-10.71;72.12;100396.63;1763577;79;20989;-52
2021/01/20 10:53:02;;;;;;;84.90;35.25;;;;;;;-10.69;71.68;100402.81;1761710;79;21140;-62
2021/01/20 10:55:31;;;;;;;75.12;33.30;;;;;;;-10.65;71.76;100396.92;1767965;79;21024;-61
2021/01/20 10:58:00;;;;;;;67.82;30.30;;;;;;;-10.60;71.62;100401.94;1761931;78;21191;-53
2021/01/20 11:00:28;;;;;;;71.30;32.15;;;;;;;-10.56;71.49;100398.61;1763604;78;21391;-54
2021/01/20 11:02:56;;;;;;;66.47;30.48;;;;;;;-10.41;71.87;100391.88;1762691;78;21106;-61
2021/01/20 11:05:24;;;;;;;68.62;29.15;;;;;;;-10.36;71.01;100393.39;1766817;79;21206;-54
2021/01/20 11:07:54;;;;;;;65.08;29.30;;;;;;;-10.36;70.82;100397.30;1765713;79;21688;-52
2021/01/20 11:10:22;;;;;;;74.72;32.50;;;;;;;-10.34;70.77;100390.42;1766350;79;21167;-61
2021/01/20 11:12:52;;;;;;;78.78;33.60;;;;;;;-10.30;70.81;100385.83;1766351;79;22370;-52
2021/01/20 11:15:20;;;;;;;59.42;27.35;;;;;;;-10.23;70.79;100381.31;1765462;79;21072;-55
2021/01/20 11:17:49;;;;;;;73.30;30.12;;;;;;;-10.12;70.55;100387.91;1766820;78;21186;-52
2021/01/20 11:20:18;;;;;;;63.50;30.00;;;;;;;-10.09;70.20;100390.63;1766007;78;21115;-60
2021/01/20 11:22:46;;;;;;;72.25;31.02;;;;;;;-10.08;70.04;100387.17;1765413;79;21564;-63
2021/01/20 11:25:14;;;;;;;70.92;30.65;;;;;;;-10.07;69.88;100388.95;1765525;79;21538;-54
2021/01/20 11:27:45;;;;;;;67.70;31.42;;;;;;;-10.03;69.94;100388.27;1762931;80;21152;-52
2021/01/20 11:30:14;;;;;;;61.58;25.70;;;;;;;-9.94;69.87;100381.67;1761458;79;21515;-55
2021/01/20 11:32:43;;;;;;;65.62;31.70;;;;;;;-9.87;69.32;100391.52;1766132;78;21155;-53